Time;durP1;ratioP1;P1;durP2;ratioP2;P2;SDS_P1;SDS_P2;PMS_P1;PMS_P2;Temp;Humidity;BMP_temperature;BMP_pressure;BME280_temperature;BME280_humidity;BME280_pressure;Samples;Min_cycle;Max_cycle;Signal;HPM_P1;HPM_P2
2021/12/13 00:01:29;;;;;;;0.90;0.90;;;6.50;99.90;;;;;;5056797;28;20257;-66
2021/12/13 00:04:01;;;;;;;1.13;1.02;;;6.50;99.90;;;;;;5041230;28;20239;-67
2021/12/13 00:06:32;;;;;;;0.70;0.65;;;6.50;99.90;;;;;;5039040;28;20189;-67
2021/12/13 00:09:07;;;;;;;2.00;1.08;;;6.50;99.90;;;;;;5050450;28;20274;-66
2021/12/13 00:11:41;;;;;;;1.05;0.95;;;6.50;99.90;;;;;;5053390;28;20212;-64
2021/12/13 00:14:14;;;;;;;0.80;0.80;;;6.50;99.90;;;;;;5050274;28;20215;-66
2021/12/13 00:16:48;;;;;;;1.17;0.85;;;6.50;99.90;;;;;;5054159;28;20626;-66
2021/12/13 00:19:21;;;;;;;1.10;1.00;;;6.60;99.90;;;;;;5057436;28;20260;-66
2021/12/13 00:21:56;;;;;;;1.20;1.10;;;6.60;99.90;;;;;;5059509;28;20193;-66
2021/12/13 00:24:27;;;;;;;0.90;0.80;;;6.50;99.90;;;;;;5046356;28;20225;-67
2021/12/13 00:27:03;;;;;;;1.10;1.00;;;6.60;99.90;;;;;;5062549;28;20255;-67
2021/12/13 00:29:43;;;;;;;0.82;0.73;;;6.60;99.90;;;;;;5032658;28;20237;-66
2021/12/13 00:32:19;;;;;;;0.90;0.80;;;6.60;99.90;;;;;;5011971;28;20188;-66
2021/12/13 00:34:50;;;;;;;1.27;0.90;;;6.50;99.90;;;;;;5017761;28;20193;-67
2021/12/13 00:37:23;;;;;;;1.05;0.90;;;6.60;99.90;;;;;;5046743;28;20247;-68
2021/12/13 00:39:55;;;;;;;1.13;0.77;;;6.60;99.90;;;;;;5033701;28;20221;-65
2021/12/13 00:42:27;;;;;;;0.90;0.80;;;6.60;99.90;;;;;;5037442;28;20259;-66
2021/12/13 00:44:59;;;;;;;1.98;1.17;;;6.60;99.90;;;;;;5033402;28;20243;-68
2021/12/13 00:47:32;;;;;;;0.82;0.77;;;6.60;99.90;;;;;;5030875;28;20587;-66
2021/12/13 00:50:06;;;;;;;1.08;0.82;;;6.60;99.90;;;;;;5024937;28;20228;-65
2021/12/13 00:52:36;;;;;;;0.70;0.70;;;6.60;99.90;;;;;;5017943;28;20263;-65
2021/12/13 00:55:10;;;;;;;0.52;0.50;;;6.60;99.90;;;;;;5032978;28;20189;-67
2021/12/13 00:57:42;;;;;;;0.60;0.50;;;6.60;99.90;;;;;;5037741;28;20686;-66
2021/12/13 01:00:21;;;;;;;2.05;1.05;;;6.60;99.90;;;;;;5012525;28;20630;-66
2021/12/13 01:02:56;;;;;;;1.52;0.80;;;6.60;99.90;;;;;;5016367;28;20587;-66
2021/12/13 01:05:55;;;;;;;0.60;0.52;;;6.60;99.90;;;;;;5020190;28;20307;-67
2021/12/13 01:09:14;;;;;;;0.75;0.75;;;6.60;99.90;;;;;;5022432;28;20229;-66
2021/12/13 01:11:53;;;;;;;0.80;0.70;;;6.60;99.90;;;;;;4963522;28;20195;-65
2021/12/13 01:14:56;;;;;;;1.05;0.85;;;6.60;99.90;;;;;;5021959;28;20219;-68
2021/12/13 01:17:41;;;;;;;0.65;0.65;;;6.60;99.90;;;;;;5032022;28;20190;-68
2021/12/13 01:20:17;;;;;;;0.80;0.75;;;6.60;99.90;;;;;;5047142;28;20213;-65
2021/12/13 01:22:50;;;;;;;0.82;0.60;;;6.60;99.90;;;;;;5033163;28;20694;-66
2021/12/13 01:25:45;;;;;;;0.90;0.70;;;6.60;99.90;;;;;;5035131;28;20217;-67
2021/12/13 01:28:20;;;;;;;0.90;0.75;;;6.60;99.90;;;;;;5050971;28;20355;-66
2021/12/13 01:30:53;;;;;;;0.93;0.70;;;6.60;99.90;;;;;;5036231;28;20767;-65
2021/12/13 01:33:23;;;;;;;1.05;0.70;;;6.60;99.90;;;;;;5041388;28;20617;-65
2021/12/13 01:35:55;;;;;;;0.80;0.70;;;6.60;99.90;;;;;;5031620;28;20189;-68
2021/12/13 01:38:32;;;;;;;1.27;1.05;;;6.60;99.90;;;;;;5030801;28;20209;-66
2021/12/13 01:41:11;;;;;;;1.40;0.80;;;6.60;99.90;;;;;;5024104;28;20288;-66
2021/12/13 01:43:43;;;;;;;0.60;0.60;;;6.60;99.90;;;;;;5018095;28;20748;-65
2021/12/13 01:46:11;;;;;;;0.90;0.80;;;6.60;99.90;;;;;;5033154;28;20563;-66
2021/12/13 01:48:42;;;;;;;0.85;0.65;;;6.60;99.90;;;;;;5026623;28;20241;-66
2021/12/13 01:51:16;;;;;;;1.15;0.63;;;6.60;99.90;;;;;;5014721;28;20196;-66
2021/12/13 01:53:49;;;;;;;1.27;0.88;;;6.60;99.90;;;;;;5030763;28;20273;-66
2021/12/13 01:56:44;;;;;;;0.70;0.60;;;6.60;99.90;;;;;;5031006;28;20232;-68
2021/12/13 01:59:41;;;;;;;0.70;0.52;;;6.60;99.90;;;;;;5021302;28;20217;-66
2021/12/13 02:02:14;;;;;;;1.10;0.70;;;6.60;99.90;;;;;;5019189;28;20190;-66
2021/12/13 02:04:44;;;;;;;0.80;0.80;;;6.60;99.90;;;;;;5017704;28;20201;-67
2021/12/13 02:07:15;;;;;;;0.93;0.57;;;6.70;99.90;;;;;;5020424;28;20536;-67
2021/12/13 02:09:45;;;;;;;1.00;0.63;;;6.60;99.90;;;;;;5033336;28;20224;-65
2021/12/13 02:12:17;;;;;;;1.40;0.95;;;6.70;99.90;;;;;;5026487;28;20193;-66
2021/12/13 02:16:55;;;;;;;0.60;0.55;;;6.60;99.90;;;;;;5029782;28;20201;-67
2021/12/13 02:17:37;;;;;;;0.80;0.70;;;6.70;99.90;;;;;;5031910;28;20221;-66
2021/12/13 02:20:10;;;;;;;0.77;0.77;;;6.70;99.90;;;;;;5030956;28;20201;-65
2021/12/13 02:22:42;;;;;;;0.98;0.90;;;6.70;99.90;;;;;;5029870;28;20247;-65
2021/12/13 02:25:19;;;;;;;0.55;0.55;;;6.60;99.90;;;;;;5015100;28;20452;-67
2021/12/13 02:27:56;;;;;;;0.80;0.73;;;6.70;99.90;;;;;;5014082;28;20225;-66
2021/12/13 02:30:31;;;;;;;1.33;0.63;;;6.70;99.90;;;;;;5027921;28;20682;-66
2021/12/13 02:33:00;;;;;;;1.42;0.70;;;6.70;99.90;;;;;;5013321;28;20225;-66
2021/12/13 02:35:33;;;;;;;0.80;0.80;;;6.70;99.90;;;;;;5029168;28;20260;-67
2021/12/13 02:38:04;;;;;;;0.80;0.77;;;6.70;99.90;;;;;;5017630;28;20226;-67
2021/12/13 02:40:33;;;;;;;0.63;0.60;;;6.70;99.90;;;;;;5020499;28;20564;-67
2021/12/13 02:43:02;;;;;;;0.70;0.60;;;6.70;99.90;;;;;;5016032;28;20707;-66
2021/12/13 02:45:32;;;;;;;0.70;0.55;;;6.70;99.90;;;;;;5029764;28;20209;-68
2021/12/13 02:48:06;;;;;;;0.70;0.50;;;6.70;99.90;;;;;;5026069;28;20254;-67
2021/12/13 02:50:43;;;;;;;0.60;0.60;;;6.70;99.90;;;;;;5013476;28;20213;-65
2021/12/13 02:53:17;;;;;;;0.98;0.60;;;6.70;99.90;;;;;;5028644;28;20212;-65
2021/12/13 02:55:45;;;;;;;1.42;0.80;;;6.70;99.90;;;;;;5063555;28;20567;-67
2021/12/13 02:58:18;;;;;;;1.10;0.77;;;6.70;99.90;;;;;;5024792;28;20229;-68
2021/12/13 03:00:51;;;;;;;1.30;0.95;;;6.70;99.90;;;;;;5016701;28;20224;-65
2021/12/13 03:03:24;;;;;;;0.90;0.90;;;6.70;99.90;;;;;;5010388;28;20321;-65
2021/12/13 03:05:56;;;;;;;0.70;0.70;;;6.70;99.90;;;;;;5031918;28;20627;-68
2021/12/13 03:08:30;;;;;;;0.90;0.70;;;6.70;99.90;;;;;;5018022;28;20222;-67
2021/12/13 03:11:04;;;;;;;0.98;0.82;;;6.70;99.90;;;;;;5028818;28;20219;-66
2021/12/13 03:13:33;;;;;;;0.90;0.70;;;6.70;99.90;;;;;;5027327;28;20209;-66
2021/12/13 03:16:10;;;;;;;0.73;0.60;;;6.70;99.90;;;;;;5012431;28;20280;-68
2021/12/13 03:18:45;;;;;;;0.70;0.70;;;6.70;99.90;;;;;;5029630;28;20224;-67
2021/12/13 03:21:42;;;;;;;1.10;0.80;;;6.70;99.90;;;;;;5013155;28;20276;-65
2021/12/13 03:24:23;;;;;;;1.00;0.80;;;6.70;99.90;;;;;;5029392;28;20218;-66
2021/12/13 03:27:06;;;;;;;0.80;0.50;;;6.70;99.90;;;;;;5030261;28;20308;-68
2021/12/13 03:29:52;;;;;;;0.80;0.60;;;6.70;99.90;;;;;;5022304;28;20225;-66
2021/12/13 03:32:22;;;;;;;0.98;0.75;;;6.70;99.90;;;;;;4995704;28;20202;-66
2021/12/13 03:35:00;;;;;;;0.98;0.98;;;6.70;99.90;;;;;;5029912;28;20197;-68
2021/12/13 03:37:28;;;;;;;0.88;0.50;;;6.70;99.90;;;;;;5043044;28;20186;-67
2021/12/13 03:40:00;;;;;;;0.70;0.57;;;6.70;99.90;;;;;;5012850;28;20624;-66
2021/12/13 03:42:35;;;;;;;1.15;0.88;;;6.70;99.90;;;;;;5011321;28;20193;-65
2021/12/13 03:45:12;;;;;;;1.02;0.70;;;6.70;99.90;;;;;;5018963;28;20202;-68
2021/12/13 03:47:44;;;;;;;1.27;0.93;;;6.70;99.90;;;;;;5017768;28;20237;-67
2021/12/13 03:50:17;;;;;;;0.90;0.65;;;6.70;99.90;;;;;;5029959;28;20505;-66
2021/12/13 03:52:48;;;;;;;0.70;0.60;;;6.70;99.90;;;;;;5035034;28;20706;-66
2021/12/13 03:55:21;;;;;;;0.60;0.60;;;6.70;99.90;;;;;;5041412;28;20185;-65
2021/12/13 03:57:53;;;;;;;1.15;0.85;;;6.80;99.90;;;;;;5038747;28;20214;-68
2021/12/13 04:00:24;;;;;;;0.77;0.63;;;6.80;99.90;;;;;;5031000;28;20236;-65
2021/12/13 04:02:55;;;;;;;0.77;0.77;;;6.80;99.90;;;;;;5032948;28;20470;-67
2021/12/13 04:05:26;;;;;;;0.70;0.65;;;6.70;99.90;;;;;;5039487;28;20193;-66
2021/12/13 04:07:57;;;;;;;0.73;0.50;;;6.80;99.90;;;;;;5029431;28;20224;-68
2021/12/13 04:10:30;;;;;;;0.75;0.60;;;6.80;99.90;;;;;;5016868;28;20224;-66
2021/12/13 04:13:08;;;;;;;0.80;0.60;;;6.80;99.90;;;;;;5019928;28;20222;-65
2021/12/13 04:15:52;;;;;;;1.10;0.90;;;6.80;99.90;;;;;;5032315;28;20204;-68
2021/12/13 04:18:39;;;;;;;0.63;0.63;;;6.80;99.90;;;;;;5016054;28;20585;-66
2021/12/13 04:21:09;;;;;;;1.20;0.60;;;6.80;99.90;;;;;;5033821;28;20193;-66
2021/12/13 04:23:38;;;;;;;0.85;0.75;;;6.80;99.90;;;;;;5024070;28;20700;-66
2021/12/13 04:26:12;;;;;;;1.75;0.70;;;6.80;99.90;;;;;;5014969;28;20193;-68
2021/12/13 04:28:43;;;;;;;0.60;0.60;;;6.70;99.90;;;;;;5020932;28;20245;-67
2021/12/13 04:31:18;;;;;;;0.88;0.65;;;6.80;99.90;;;;;;5006832;28;20259;-65
2021/12/13 04:33:51;;;;;;;1.02;0.70;;;6.80;99.90;;;;;;5033682;28;20224;-65
2021/12/13 04:36:22;;;;;;;0.73;0.70;;;6.80;99.90;;;;;;5014761;28;20635;-68
2021/12/13 04:38:52;;;;;;;1.30;0.77;;;6.80;99.90;;;;;;5012605;28;20218;-68
2021/12/13 04:41:24;;;;;;;0.73;0.68;;;6.80;99.90;;;;;;5015966;28;20657;-65
2021/12/13 04:43:57;;;;;;;0.70;0.57;;;6.80;99.90;;;;;;5021259;28;20275;-65
2021/12/13 04:46:28;;;;;;;1.00;0.60;;;6.80;99.90;;;;;;5034533;28;20206;-68
2021/12/13 04:49:03;;;;;;;0.70;0.60;;;6.80;99.90;;;;;;5015990;28;20216;-66
2021/12/13 04:51:42;;;;;;;0.70;0.60;;;6.80;99.90;;;;;;5015389;28;20193;-66
2021/12/13 04:54:12;;;;;;;0.80;0.70;;;6.80;99.90;;;;;;5027781;28;20268;-65
2021/12/13 04:56:43;;;;;;;0.70;0.60;;;6.80;99.90;;;;;;5017885;28;20233;-66
2021/12/13 04:59:14;;;;;;;1.08;0.50;;;6.80;99.90;;;;;;5018715;28;20636;-67
2021/12/13 05:01:46;;;;;;;0.50;0.40;;;6.80;99.90;;;;;;5026548;28;20581;-66
2021/12/13 05:04:16;;;;;;;0.85;0.63;;;6.80;99.90;;;;;;5031880;28;20302;-66
2021/12/13 05:06:44;;;;;;;0.63;0.57;;;6.80;99.90;;;;;;5032723;28;20219;-68
2021/12/13 05:09:15;;;;;;;0.70;0.70;;;6.80;99.90;;;;;;5025694;28;20225;-68
2021/12/13 05:11:47;;;;;;;0.88;0.80;;;6.80;99.90;;;;;;5020583;28;20625;-66
2021/12/13 05:14:17;;;;;;;0.60;0.45;;;6.80;99.90;;;;;;5027125;28;20660;-66
2021/12/13 05:16:50;;;;;;;0.85;0.70;;;6.80;99.90;;;;;;5011644;28;20198;-68
2021/12/13 05:19:28;;;;;;;0.90;0.60;;;6.80;99.90;;;;;;5013588;28;20234;-68
2021/12/13 05:21:58;;;;;;;1.33;0.90;;;6.80;99.90;;;;;;5020507;28;20199;-66
2021/12/13 05:24:29;;;;;;;0.65;0.55;;;6.80;99.90;;;;;;5015844;28;20244;-66
2021/12/13 05:27:04;;;;;;;0.80;0.60;;;6.80;99.90;;;;;;5015165;28;20251;-67
2021/12/13 05:29:35;;;;;;;1.00;0.63;;;6.80;99.90;;;;;;5018390;28;20281;-67
2021/12/13 05:32:08;;;;;;;0.80;0.70;;;6.80;99.90;;;;;;5023788;28;20240;-66
2021/12/13 05:34:41;;;;;;;0.70;0.50;;;6.80;99.90;;;;;;5015356;28;20277;-66
2021/12/13 05:37:10;;;;;;;0.82;0.73;;;6.80;99.90;;;;;;5032397;28;20293;-67
2021/12/13 05:39:53;;;;;;;0.85;0.68;;;6.80;99.90;;;;;;5032157;28;20335;-68
2021/12/13 05:42:22;;;;;;;0.90;0.60;;;6.80;99.90;;;;;;5046734;28;20194;-65
2021/12/13 05:44:50;;;;;;;0.60;0.50;;;6.80;99.90;;;;;;5019920;28;20230;-65
2021/12/13 05:47:22;;;;;;;2.25;0.60;;;6.80;99.90;;;;;;5028575;28;20211;-69
2021/12/13 05:49:52;;;;;;;0.70;0.70;;;6.90;99.90;;;;;;5020655;28;20267;-69
2021/12/13 05:52:24;;;;;;;1.30;1.00;;;6.80;99.90;;;;;;5020984;28;20183;-66
2021/12/13 05:54:57;;;;;;;0.70;0.60;;;6.80;99.90;;;;;;5031223;28;20206;-65
2021/12/13 05:57:29;;;;;;;0.85;0.70;;;6.90;99.90;;;;;;5021614;28;20186;-68
2021/12/13 06:00:01;;;;;;;1.08;0.75;;;6.90;99.90;;;;;;5014851;28;20218;-67
2021/12/13 06:02:54;;;;;;;0.68;0.50;;;6.90;99.90;;;;;;5022661;28;20236;-66
2021/12/13 06:05:26;;;;;;;0.70;0.70;;;6.90;99.90;;;;;;5022037;28;20288;-66
2021/12/13 06:07:57;;;;;;;1.08;0.80;;;6.90;99.90;;;;;;5037458;28;20983;-68
2021/12/13 06:10:33;;;;;;;0.93;0.57;;;6.90;99.90;;;;;;5039485;28;20582;-65
2021/12/13 06:13:06;;;;;;;0.77;0.65;;;6.90;99.90;;;;;;5035785;28;20596;-65
2021/12/13 06:15:37;;;;;;;0.60;0.60;;;6.80;99.90;;;;;;5046683;28;20276;-65
2021/12/13 06:18:18;;;;;;;1.35;0.50;;;6.90;99.90;;;;;;5032755;28;20258;-67
2021/12/13 06:20:54;;;;;;;0.60;0.60;;;6.90;99.90;;;;;;5026756;28;20691;-65
2021/12/13 06:23:24;;;;;;;0.65;0.63;;;6.90;99.90;;;;;;5016739;28;20610;-66
2021/12/13 06:25:57;;;;;;;0.60;0.60;;;6.90;99.90;;;;;;5012943;28;20253;-68
2021/12/13 06:28:30;;;;;;;0.75;0.60;;;6.90;99.90;;;;;;5030251;28;20225;-67
2021/12/13 06:31:03;;;;;;;1.30;0.85;;;6.90;99.90;;;;;;5031940;28;20217;-66
2021/12/13 06:33:52;;;;;;;0.60;0.52;;;6.80;99.90;;;;;;5016007;28;20244;-67
2021/12/13 06:36:27;;;;;;;0.50;0.50;;;6.90;99.90;;;;;;5030803;28;20236;-67
2021/12/13 06:38:57;;;;;;;0.95;0.80;;;6.90;99.90;;;;;;5024474;28;20631;-68
2021/12/13 06:41:37;;;;;;;0.80;0.70;;;6.90;99.90;;;;;;5021864;28;20194;-67
2021/12/13 06:44:19;;;;;;;0.73;0.60;;;6.90;99.90;;;;;;5022167;28;20226;-65
2021/12/13 06:46:53;;;;;;;0.88;0.88;;;6.90;99.90;;;;;;5017913;28;20264;-66
2021/12/13 06:49:26;;;;;;;0.75;0.68;;;6.90;99.90;;;;;;5016275;28;20225;-69
2021/12/13 06:51:59;;;;;;;0.70;0.55;;;6.90;99.90;;;;;;5030389;28;20213;-66
2021/12/13 06:54:31;;;;;;;1.75;0.75;;;6.90;99.90;;;;;;5031039;28;20671;-65
2021/12/13 06:57:03;;;;;;;0.75;0.70;;;6.90;99.90;;;;;;5012617;28;20249;-68
2021/12/13 06:59:35;;;;;;;0.70;0.70;;;6.90;99.90;;;;;;5016245;28;20218;-67
2021/12/13 07:02:11;;;;;;;0.77;0.75;;;6.90;99.90;;;;;;5022439;28;20185;-65
2021/12/13 07:04:57;;;;;;;0.88;0.60;;;6.90;99.90;;;;;;5020506;28;20249;-66
2021/12/13 07:07:28;;;;;;;0.60;0.50;;;6.90;99.90;;;;;;5015064;28;20255;-67
2021/12/13 07:09:58;;;;;;;0.50;0.40;;;6.90;99.90;;;;;;5030301;28;20240;-68
2021/12/13 07:12:31;;;;;;;0.80;0.50;;;6.90;99.90;;;;;;5028822;28;20202;-67
2021/12/13 07:15:02;;;;;;;0.85;0.40;;;6.90;99.90;;;;;;5043009;28;20656;-66
2021/12/13 07:17:33;;;;;;;0.60;0.47;;;6.90;99.90;;;;;;5017333;28;20583;-69
2021/12/13 07:20:12;;;;;;;0.70;0.60;;;6.90;99.90;;;;;;5033088;28;20217;-68
2021/12/13 07:22:42;;;;;;;0.77;0.60;;;6.90;99.90;;;;;;5043089;28;20214;-66
2021/12/13 07:25:15;;;;;;;0.85;0.50;;;6.90;99.90;;;;;;5012014;28;20194;-66
2021/12/13 07:27:45;;;;;;;0.75;0.60;;;6.90;99.90;;;;;;5028479;28;20213;-66
2021/12/13 07:30:17;;;;;;;1.02;0.65;;;6.90;99.90;;;;;;5021042;28;20298;-68
2021/12/13 07:32:52;;;;;;;0.73;0.63;;;6.90;99.90;;;;;;5016207;28;20277;-66
2021/12/13 07:35:24;;;;;;;0.85;0.80;;;6.90;99.90;;;;;;5013560;28;20197;-66
2021/12/13 07:37:55;;;;;;;0.65;0.65;;;6.90;99.90;;;;;;5014150;28;20741;-68
2021/12/13 07:40:28;;;;;;;0.85;0.82;;;6.90;99.90;;;;;;5012952;28;20996;-68
2021/12/13 07:43:19;;;;;;;0.50;0.47;;;6.90;99.90;;;;;;5018937;28;20263;-66
2021/12/13 07:45:57;;;;;;;0.60;0.40;;;6.90;99.90;;;;;;5014895;28;20198;-67
2021/12/13 07:48:29;;;;;;;0.60;0.60;;;6.90;99.90;;;;;;5022207;28;20338;-68
2021/12/13 07:51:07;;;;;;;0.88;0.63;;;6.90;99.90;;;;;;5016756;28;20598;-68
2021/12/13 07:53:43;;;;;;;1.00;0.60;;;6.90;99.90;;;;;;5024337;28;20291;-66
2021/12/13 07:56:14;;;;;;;0.75;0.70;;;6.90;99.90;;;;;;5020352;28;20195;-66
2021/12/13 07:58:46;;;;;;;0.77;0.75;;;6.90;99.90;;;;;;5030341;28;20217;-67
2021/12/13 08:01:20;;;;;;;0.88;0.85;;;6.90;99.90;;;;;;4995589;28;20213;-66
2021/12/13 08:03:55;;;;;;;0.82;0.77;;;6.90;99.90;;;;;;5018969;28;20216;-66
2021/12/13 08:06:28;;;;;;;2.13;0.85;;;6.90;99.90;;;;;;5025507;28;20224;-66
2021/12/13 08:08:58;;;;;;;0.60;0.60;;;7.00;99.90;;;;;;5033777;28;20228;-66
2021/12/13 08:11:38;;;;;;;0.90;0.85;;;7.00;99.90;;;;;;5041604;28;20220;-66
2021/12/13 08:14:07;;;;;;;1.35;0.95;;;6.90;99.90;;;;;;5015742;28;20225;-66
2021/12/13 08:16:40;;;;;;;1.23;1.10;;;7.00;99.90;;;;;;5017703;28;20295;-66
2021/12/13 08:19:22;;;;;;;0.85;0.63;;;6.90;99.90;;;;;;5013188;28;20700;-66
2021/12/13 08:21:54;;;;;;;0.82;0.60;;;7.00;99.90;;;;;;5015459;28;21506;-66
2021/12/13 08:24:29;;;;;;;1.27;0.80;;;6.90;99.90;;;;;;5027267;28;20279;-66
2021/12/13 08:27:26;;;;;;;0.90;0.70;;;7.00;99.90;;;;;;5022393;28;20186;-65
2021/12/13 08:30:58;;;;;;;1.35;0.82;;;7.00;99.90;;;;;;5002135;28;20217;-67
2021/12/13 08:33:34;;;;;;;0.77;0.70;;;7.00;99.90;;;;;;5030764;28;20217;-65
2021/12/13 08:36:07;;;;;;;0.70;0.70;;;7.00;99.90;;;;;;5024749;28;20227;-65
2021/12/13 08:38:40;;;;;;;1.02;0.93;;;7.00;99.90;;;;;;5022031;28;20217;-67
2021/12/13 08:41:21;;;;;;;0.80;0.70;;;7.00;99.90;;;;;;5017157;28;20282;-66
2021/12/13 08:43:54;;;;;;;0.60;0.55;;;7.00;99.90;;;;;;5010043;28;20220;-67
2021/12/13 08:46:34;;;;;;;1.17;0.90;;;7.00;99.90;;;;;;5014908;28;20249;-66
2021/12/13 08:49:14;;;;;;;1.45;1.05;;;7.00;99.90;;;;;;5033715;28;20215;-66
2021/12/13 08:51:52;;;;;;;1.05;0.95;;;7.00;99.90;;;;;;5034255;28;20255;-66
2021/12/13 08:54:21;;;;;;;0.90;0.70;;;7.00;99.90;;;;;;5022195;28;20239;-66
2021/12/13 08:56:52;;;;;;;0.70;0.60;;;7.00;99.90;;;;;;5019464;28;20201;-65
2021/12/13 08:59:23;;;;;;;0.88;0.60;;;7.00;99.90;;;;;;5020983;28;20222;-66
2021/12/13 09:01:54;;;;;;;1.45;1.10;;;7.00;99.90;;;;;;5034533;28;20635;-65
2021/12/13 09:04:28;;;;;;;1.42;0.80;;;7.00;99.90;;;;;;5030266;28;20869;-65
2021/12/13 09:06:59;;;;;;;0.75;0.50;;;7.00;99.90;;;;;;5033038;28;20194;-65
2021/12/13 09:09:29;;;;;;;0.70;0.70;;;7.00;99.90;;;;;;5022112;28;20252;-66
2021/12/13 09:12:01;;;;;;;1.10;0.82;;;7.00;99.90;;;;;;5023151;28;20252;-65
2021/12/13 09:14:38;;;;;;;1.05;0.90;;;7.00;99.90;;;;;;5034404;28;20222;-66
2021/12/13 09:17:15;;;;;;;1.10;0.85;;;7.00;99.90;;;;;;5039657;28;20653;-66
2021/12/13 09:19:54;;;;;;;0.77;0.70;;;7.00;99.90;;;;;;5016270;28;20213;-67
2021/12/13 09:22:27;;;;;;;1.02;0.75;;;7.00;99.90;;;;;;5035912;28;20200;-67
2021/12/13 09:25:01;;;;;;;1.20;0.80;;;7.00;99.90;;;;;;5018232;28;20217;-66
2021/12/13 09:27:38;;;;;;;0.80;0.65;;;7.00;99.90;;;;;;4998577;28;20223;-66
2021/12/13 09:30:23;;;;;;;1.00;0.77;;;7.00;99.90;;;;;;5041386;28;20225;-67
2021/12/13 09:32:56;;;;;;;1.10;1.00;;;7.00;99.90;;;;;;5033311;28;20250;-65
2021/12/13 09:35:34;;;;;;;1.00;0.90;;;7.00;99.90;;;;;;5034006;28;20204;-66
2021/12/13 09:38:21;;;;;;;0.95;0.80;;;7.00;99.90;;;;;;5013929;28;20272;-66
2021/12/13 09:40:53;;;;;;;0.82;0.70;;;7.00;99.90;;;;;;5032159;28;20415;-66
2021/12/13 09:43:22;;;;;;;0.65;0.65;;;7.00;99.90;;;;;;5032004;28;20251;-65
2021/12/13 09:45:55;;;;;;;0.85;0.70;;;7.00;99.90;;;;;;5033614;28;20276;-67
2021/12/13 09:48:29;;;;;;;0.70;0.70;;;7.00;99.90;;;;;;5032500;28;20255;-68
2021/12/13 09:51:11;;;;;;;1.48;0.98;;;7.00;99.90;;;;;;5050037;28;20226;-67
2021/12/13 09:53:40;;;;;;;0.90;0.60;;;7.00;99.90;;;;;;5038413;28;20218;-66
2021/12/13 09:56:12;;;;;;;1.00;0.90;;;7.00;99.90;;;;;;5031757;28;20186;-66
2021/12/13 09:58:44;;;;;;;2.17;1.80;;;7.00;99.90;;;;;;5013318;28;20222;-67
2021/12/13 10:01:17;;;;;;;1.45;0.95;;;7.10;99.90;;;;;;5028413;28;20664;-67
2021/12/13 10:03:52;;;;;;;1.00;0.82;;;7.00;99.90;;;;;;5019553;28;20287;-66
2021/12/13 10:06:26;;;;;;;0.90;0.80;;;7.00;99.90;;;;;;5015499;28;20188;-66
2021/12/13 10:08:59;;;;;;;2.40;0.90;;;7.10;99.90;;;;;;5019828;28;20216;-66
2021/12/13 10:11:32;;;;;;;1.92;0.90;;;7.10;99.90;;;;;;5021844;28;20194;-67
2021/12/13 10:14:03;;;;;;;1.00;0.70;;;7.10;99.90;;;;;;5030330;28;20266;-66
2021/12/13 10:16:41;;;;;;;1.30;1.00;;;7.10;99.90;;;;;;5032333;28;20748;-66
2021/12/13 10:19:19;;;;;;;1.45;1.35;;;7.10;99.90;;;;;;5032471;28;20237;-67
2021/12/13 10:21:52;;;;;;;0.93;0.80;;;7.10;99.90;;;;;;5028921;28;20189;-67
2021/12/13 10:24:24;;;;;;;1.55;0.65;;;7.10;99.90;;;;;;5031514;28;20396;-67
2021/12/13 10:26:55;;;;;;;0.80;0.77;;;7.10;99.90;;;;;;5027762;28;20667;-66
2021/12/13 10:29:40;;;;;;;1.33;1.17;;;7.10;99.90;;;;;;5013870;28;20231;-67
2021/12/13 10:32:17;;;;;;;0.80;0.80;;;7.10;99.90;;;;;;5031720;28;20245;-67
2021/12/13 10:34:50;;;;;;;0.75;0.75;;;7.10;99.90;;;;;;5034340;28;20673;-65
2021/12/13 10:37:24;;;;;;;1.08;0.98;;;7.10;99.90;;;;;;5051570;28;20200;-65
2021/12/13 10:39:55;;;;;;;1.10;1.00;;;7.10;99.90;;;;;;5018353;28;20218;-67
2021/12/13 10:42:26;;;;;;;0.77;0.75;;;7.10;99.90;;;;;;5012312;28;20195;-67
2021/12/13 10:44:55;;;;;;;1.08;0.98;;;7.10;99.90;;;;;;5022498;28;20197;-67
2021/12/13 10:47:26;;;;;;;1.40;0.90;;;7.10;99.90;;;;;;5012429;28;20190;-66
2021/12/13 10:49:56;;;;;;;0.75;0.75;;;7.10;99.90;;;;;;5026166;28;20305;-67
2021/12/13 10:52:33;;;;;;;1.02;0.80;;;7.10;99.90;;;;;;5014877;28;20188;-67
2021/12/13 10:55:07;;;;;;;1.30;0.90;;;7.10;99.90;;;;;;5028609;28;20197;-66
2021/12/13 10:57:43;;;;;;;1.17;1.08;;;7.10;99.90;;;;;;5013630;28;20222;-66
2021/12/13 11:00:15;;;;;;;0.98;0.77;;;7.10;99.90;;;;;;5032769;28;20560;-68
2021/12/13 11:02:43;;;;;;;1.00;0.80;;;7.10;99.90;;;;;;5045830;28;20222;-65
2021/12/13 11:05:17;;;;;;;0.75;0.70;;;7.10;99.90;;;;;;5009872;28;20195;-65
2021/12/13 11:07:48;;;;;;;0.98;0.75;;;7.10;99.90;;;;;;5026390;28;20620;-66
2021/12/13 11:10:22;;;;;;;1.20;1.10;;;7.10;99.90;;;;;;5018490;28;20244;-68
2021/12/13 11:12:58;;;;;;;0.80;0.60;;;7.10;99.90;;;;;;5032033;28;20312;-67
2021/12/13 11:15:29;;;;;;;1.13;0.85;;;7.10;99.90;;;;;;5023707;28;20199;-66
2021/12/13 11:17:59;;;;;;;0.93;0.88;;;7.10;99.90;;;;;;5013663;28;20258;-66
2021/12/13 11:20:31;;;;;;;1.15;0.85;;;7.10;99.90;;;;;;5029098;28;20219;-67
2021/12/13 11:23:01;;;;;;;1.60;1.10;;;7.10;99.90;;;;;;5020515;28;20591;-67
2021/12/13 11:25:32;;;;;;;1.05;0.85;;;7.10;99.90;;;;;;5026959;28;20222;-68
2021/12/13 11:28:02;;;;;;;1.27;0.90;;;7.10;99.90;;;;;;5028645;28;20290;-65
2021/12/13 11:30:33;;;;;;;0.88;0.75;;;7.10;99.90;;;;;;5028557;28;20655;-67
2021/12/13 11:33:50;;;;;;;0.60;0.60;;;7.10;99.90;;;;;;5031189;28;20639;-65
2021/12/13 11:37:00;;;;;;;1.15;1.05;;;7.10;99.90;;;;;;5011935;28;20197;-66
2021/12/13 11:39:59;;;;;;;0.80;0.68;;;7.10;99.90;;;;;;5004086;28;20628;-66
2021/12/13 11:43:06;;;;;;;0.65;0.60;;;7.10;99.90;;;;;;5030581;28;20667;-68
2021/12/13 11:46:19;;;;;;;0.80;0.77;;;7.10;99.90;;;;;;5019383;28;20200;-65
2021/12/13 11:49:12;;;;;;;1.15;0.95;;;7.10;99.90;;;;;;5012223;28;20292;-67
2021/12/13 11:52:02;;;;;;;1.02;0.93;;;7.10;99.90;;;;;;5011825;28;20210;-67
2021/12/13 11:55:18;;;;;;;1.38;1.27;;;7.20;99.90;;;;;;5013010;28;20530;-66
2021/12/13 11:58:12;;;;;;;0.80;0.75;;;7.10;99.90;;;;;;4960173;28;20376;-66
2021/12/13 12:01:07;;;;;;;0.90;0.70;;;7.10;99.90;;;;;;5031262;28;20220;-66
2021/12/13 12:04:25;;;;;;;0.98;0.75;;;7.20;99.90;;;;;;5005563;28;20222;-66
2021/12/13 12:07:23;;;;;;;0.80;0.80;;;7.20;99.90;;;;;;5011840;28;20613;-66
2021/12/13 12:10:10;;;;;;;1.17;0.95;;;7.20;99.90;;;;;;5027836;28;20730;-67
2021/12/13 12:12:54;;;;;;;0.90;0.90;;;7.20;99.90;;;;;;5029736;28;20217;-67
2021/12/13 12:15:26;;;;;;;0.93;0.90;;;7.20;99.90;;;;;;5030686;28;20201;-66
2021/12/13 12:17:56;;;;;;;1.00;0.70;;;7.20;99.90;;;;;;5026924;28;20216;-65
2021/12/13 12:20:28;;;;;;;1.02;0.93;;;7.20;99.90;;;;;;5049444;28;20209;-69
2021/12/13 12:23:00;;;;;;;0.93;0.68;;;7.20;99.90;;;;;;5047538;28;20227;-68
2021/12/13 12:25:32;;;;;;;0.75;0.60;;;7.20;99.90;;;;;;5054080;28;20625;-66
2021/12/13 12:28:05;;;;;;;0.90;0.90;;;7.20;99.90;;;;;;5052683;28;20216;-66
2021/12/13 12:30:40;;;;;;;1.15;1.05;;;7.20;99.90;;;;;;5054045;28;20341;-66
2021/12/13 12:33:10;;;;;;;1.17;0.65;;;7.20;99.90;;;;;;5034543;28;20220;-66
2021/12/13 12:35:42;;;;;;;0.88;0.75;;;7.20;99.90;;;;;;5054309;28;20666;-66
2021/12/13 12:38:24;;;;;;;0.70;0.60;;;7.20;99.90;;;;;;5050196;28;20206;-66
2021/12/13 12:41:39;;;;;;;1.02;0.93;;;7.20;99.90;;;;;;5038600;28;20287;-66
2021/12/13 12:44:17;;;;;;;0.65;0.63;;;7.20;99.90;;;;;;5026076;28;20292;-68
2021/12/13 12:46:47;;;;;;;0.60;0.60;;;7.20;99.90;;;;;;5032943;28;20200;-66
2021/12/13 12:49:21;;;;;;;0.95;0.57;;;7.20;99.90;;;;;;5034849;28;20838;-70
2021/12/13 12:51:52;;;;;;;0.75;0.75;;;7.20;99.90;;;;;;5053907;28;20703;-69
2021/12/13 12:54:22;;;;;;;0.80;0.60;;;7.20;99.90;;;;;;5016711;28;20214;-66
2021/12/13 12:56:53;;;;;;;1.00;1.00;;;7.20;99.90;;;;;;5030492;28;20249;-65
2021/12/13 12:59:24;;;;;;;0.70;0.65;;;7.20;99.90;;;;;;5020875;28;20213;-69
2021/12/13 13:01:58;;;;;;;1.73;0.68;;;7.20;99.90;;;;;;5034187;28;20280;-65
2021/12/13 13:04:30;;;;;;;0.93;0.80;;;7.20;99.90;;;;;;5033634;28;20271;-66
2021/12/13 13:07:04;;;;;;;1.40;0.80;;;7.20;99.90;;;;;;5022865;28;20257;-66
2021/12/13 13:09:40;;;;;;;0.88;0.70;;;7.20;99.90;;;;;;5020536;28;20281;-66
2021/12/13 13:12:12;;;;;;;0.73;0.70;;;7.20;99.90;;;;;;5016360;28;20205;-68
2021/12/13 13:14:48;;;;;;;1.65;0.90;;;7.20;99.90;;;;;;5043916;28;20230;-66
2021/12/13 13:17:21;;;;;;;5.15;0.90;;;7.20;99.90;;;;;;5053595;28;20200;-67
2021/12/13 13:19:50;;;;;;;1.00;0.88;;;7.20;99.90;;;;;;5052377;28;20218;-68
2021/12/13 13:22:22;;;;;;;0.80;0.70;;;7.20;99.90;;;;;;5042747;28;20236;-66
2021/12/13 13:25:14;;;;;;;0.80;0.80;;;7.20;99.90;;;;;;5051904;28;20183;-66
2021/12/13 13:27:42;;;;;;;1.08;0.73;;;7.20;99.90;;;;;;5029426;28;20272;-67
2021/12/13 13:30:17;;;;;;;0.95;0.80;;;7.20;99.90;;;;;;5031648;28;20216;-68
2021/12/13 13:32:47;;;;;;;0.90;0.70;;;7.20;99.90;;;;;;5032304;28;20230;-66
2021/12/13 13:35:16;;;;;;;0.70;0.70;;;7.20;99.90;;;;;;5033080;28;20197;-66
2021/12/13 13:38:05;;;;;;;0.80;0.60;;;7.20;99.90;;;;;;5028330;28;20221;-66
2021/12/13 13:40:35;;;;;;;0.90;0.75;;;7.20;99.90;;;;;;5013709;28;20257;-66
2021/12/13 13:43:08;;;;;;;1.20;0.68;;;7.20;99.90;;;;;;5027929;28;20277;-66